Time;durP1;ratioP1;P1;durP2;ratioP2;P2;SDS_P1;SDS_P2;PMS_P1;PMS_P2;Temp;Humidity;BMP_temperature;BMP_pressure;BME280_temperature;BME280_humidity;BME280_pressure;Samples;Min_cycle;Max_cycle;Signal;HPM_P1;HPM_P2
2023/02/10 00:00:44;;;;;;;;;;;;;;;-3.18;60.40;101869.84;5090535;28;19912;-35
2023/02/10 00:03:09;;;;;;;;;;;;;;;-3.36;62.58;101863.59;5090525;28;19927;-35
2023/02/10 00:05:35;;;;;;;;;;;;;;;-3.23;59.70;101871.78;5090221;28;19912;-35
2023/02/10 00:08:00;;;;;;;;;;;;;;;-2.92;60.99;101878.31;5090430;28;20315;-35
2023/02/10 00:10:25;;;;;;;;;;;;;;;-2.93;59.50;101874.03;5090529;28;20057;-35
2023/02/10 00:12:50;;;;;;;;;;;;;;;-3.15;59.97;101871.47;5090453;28;19939;-35
2023/02/10 00:15:16;;;;;;;;;;;;;;;-3.35;59.77;101859.22;5090452;28;20295;-35
2023/02/10 00:17:41;;;;;;;;;;;;;;;-3.00;60.55;101873.44;5090448;28;19912;-35
2023/02/10 00:20:07;;;;;;;;;;;;;;;-3.44;59.70;101878.69;5090129;28;19946;-35
2023/02/10 00:22:33;;;;;;;;;;;;;;;-3.78;62.19;101874.78;5090055;28;19920;-35
2023/02/10 00:24:58;;;;;;;;;;;;;;;-3.21;61.83;101869.09;5090217;28;19912;-36
2023/02/10 00:27:24;;;;;;;;;;;;;;;-3.23;60.15;101866.56;5092497;28;20063;-36
2023/02/10 00:29:49;;;;;;;;;;;;;;;-2.94;60.93;101874.94;5094058;28;19998;-36
2023/02/10 00:32:17;;;;;;;;;;;;;;;-3.15;59.86;101869.69;5093618;28;20045;-36
2023/02/10 00:34:42;;;;;;;;;;;;;;;-3.34;61.30;101868.75;5093928;28;20003;-35
2023/02/10 00:37:07;;;;;;;;;;;;;;;-2.98;59.83;101866.38;5094075;28;20332;-36
2023/02/10 00:39:33;;;;;;;;;;;;;;;-3.09;60.63;101859.94;5094648;28;19912;-36
2023/02/10 00:41:58;;;;;;;;;;;;;;;-2.71;59.35;101863.53;5094864;28;19940;-36
2023/02/10 00:44:23;;;;;;;;;;;;;;;-2.57;58.96;101866.41;5094428;28;19927;-34
2023/02/10 00:46:48;;;;;;;;;;;;;;;-2.79;59.52;101863.84;5094477;28;19912;-35
2023/02/10 00:49:14;;;;;;;;;;;;;;;-3.22;60.98;101855.25;5094712;28;19918;-35
2023/02/10 00:51:39;;;;;;;;;;;;;;;-3.30;59.69;101853.84;5094455;28;20383;-36
2023/02/10 00:54:04;;;;;;;;;;;;;;;-3.63;62.95;101857.75;5094055;28;20268;-36
2023/02/10 00:56:30;;;;;;;;;;;;;;;-3.68;61.95;101856.22;5094241;28;19912;-36
2023/02/10 00:58:55;;;;;;;;;;;;;;;-3.76;62.55;101856.53;5093995;28;19923;-36
2023/02/10 01:01:20;;;;;;;;;;;;;;;-3.90;62.85;101856.19;5094419;28;19955;-36
2023/02/10 01:03:46;;;;;;;;;;;;;;;-4.04;62.94;101865.38;5093978;28;20336;-36
2023/02/10 01:06:13;;;;;;;;;;;;;;;-3.98;64.01;101856.50;5093915;28;20410;-35
2023/02/10 01:08:38;;;;;;;;;;;;;;;-4.05;62.98;101858.50;5094147;28;19977;-34
2023/02/10 01:11:08;;;;;;;;;;;;;;;-4.11;63.09;101861.31;5093579;28;20346;-35
2023/02/10 01:13:36;;;;;;;;;;;;;;;-4.01;64.19;101860.06;5093751;28;19966;-35
2023/02/10 01:16:03;;;;;;;;;;;;;;;-4.03;63.52;101846.28;5093662;28;19955;-35
2023/02/10 01:18:29;;;;;;;;;;;;;;;-3.97;63.94;101840.81;5094019;28;19913;-35
2023/02/10 01:20:54;;;;;;;;;;;;;;;-3.92;62.87;101840.66;5093562;28;19916;-36
2023/02/10 01:23:19;;;;;;;;;;;;;;;-3.99;63.00;101839.19;5093397;28;20340;-35
2023/02/10 01:25:45;;;;;;;;;;;;;;;-4.06;62.74;101851.56;5093512;28;19968;-36
2023/02/10 01:28:10;;;;;;;;;;;;;;;-4.02;62.41;101839.31;5093368;28;20276;-36
2023/02/10 01:30:35;;;;;;;;;;;;;;;-4.13;63.59;101843.16;5093254;28;19923;-36
2023/02/10 01:33:01;;;;;;;;;;;;;;;-4.47;64.80;101830.56;5093305;28;19916;-35
2023/02/10 01:35:27;;;;;;;;;;;;;;;-4.30;63.79;101837.75;5093504;28;19912;-35
2023/02/10 01:37:52;;;;;;;;;;;;;;;-4.05;62.50;101834.25;5093373;28;19916;-35
2023/02/10 01:40:17;;;;;;;;;;;;;;;-3.91;62.61;101836.31;5091479;28;20406;-36
2023/02/10 01:42:45;;;;;;;;;;;;;;;-4.08;62.36;101842.16;5093159;28;19916;-36
2023/02/10 01:45:16;;;;;;;;;;;;;;;-4.22;62.83;101834.88;5093081;28;19916;-35
2023/02/10 01:47:42;;;;;;;;;;;;;;;-4.56;63.99;101838.69;5093069;28;19922;-35
2023/02/10 01:50:08;;;;;;;;;;;;;;;-4.57;65.12;101835.25;5093082;28;19912;-35
2023/02/10 01:52:33;;;;;;;;;;;;;;;-4.62;65.19;101841.53;5092833;28;19947;-35
2023/02/10 01:55:05;;;;;;;;;;;;;;;-4.64;65.61;101840.72;5092594;28;20436;-35
2023/02/10 01:57:30;;;;;;;;;;;;;;;-4.67;64.41;101827.84;5092494;28;19912;-35
2023/02/10 01:59:56;;;;;;;;;;;;;;;-4.67;65.20;101833.03;5092707;28;19961;-35
2023/02/10 02:02:22;;;;;;;;;;;;;;;-4.75;65.61;101828.94;5092717;28;19973;-36
2023/02/10 02:04:47;;;;;;;;;;;;;;;-4.67;65.97;101833.03;5092598;28;19994;-35
2023/02/10 02:07:13;;;;;;;;;;;;;;;-4.69;65.24;101830.47;5092200;28;19918;-36
2023/02/10 02:09:38;;;;;;;;;;;;;;;-4.57;65.54;101831.78;5091942;28;19916;-36
2023/02/10 02:12:03;;;;;;;;;;;;;;;-4.65;64.85;101826.88;5091813;28;19916;-35
2023/02/10 02:14:34;;;;;;;;;;;;;;;-4.46;64.86;101819.25;5091982;28;19912;-36
2023/02/10 02:16:59;;;;;;;;;;;;;;;-4.63;64.67;101821.63;5091997;28;20549;-36
2023/02/10 02:19:43;;;;;;;;;;;;;;;-4.85;65.95;101806.81;5091912;28;19912;-36
2023/02/10 02:22:14;;;;;;;;;;;;;;;-4.54;63.97;101810.91;5091766;28;19961;-37
2023/02/10 02:24:45;;;;;;;;;;;;;;;-4.36;64.07;101810.22;5092159;28;19920;-36
2023/02/10 02:27:19;;;;;;;;;;;;;;;-4.40;64.88;101802.59;5091924;28;19998;-36
2023/02/10 02:29:47;;;;;;;;;;;;;;;-4.28;63.38;101796.06;5092221;28;19912;-36
2023/02/10 02:32:15;;;;;;;;;;;;;;;-4.86;65.89;101797.28;5091911;28;19916;-36
2023/02/10 02:34:54;;;;;;;;;;;;;;;-4.89;66.59;101805.22;5092007;28;19912;-36
2023/02/10 02:37:19;;;;;;;;;;;;;;;-4.96;66.26;101794.19;5091692;28;19916;-36
2023/02/10 02:39:47;;;;;;;;;;;;;;;-4.86;66.27;101799.06;5091960;28;19912;-36
2023/02/10 02:42:14;;;;;;;;;;;;;;;-4.79;66.04;101803.97;5092112;28;19964;-36
2023/02/10 02:44:40;;;;;;;;;;;;;;;-4.74;66.32;101807.28;5092109;28;20007;-36
2023/02/10 02:47:18;;;;;;;;;;;;;;;-4.82;65.09;101798.03;5091954;28;19955;-36
2023/02/10 02:49:56;;;;;;;;;;;;;;;-4.71;65.86;101801.94;5091186;28;20363;-36
2023/02/10 02:52:26;;;;;;;;;;;;;;;-4.32;63.91;101798.81;5091796;28;19924;-36
2023/02/10 02:54:52;;;;;;;;;;;;;;;-4.07;63.90;101800.47;5091902;28;19958;-36
2023/02/10 02:57:17;;;;;;;;;;;;;;;-4.01;64.38;101800.25;5092076;28;19912;-36
2023/02/10 02:59:48;;;;;;;;;;;;;;;-4.02;64.07;101793.31;5091608;28;19916;-36
2023/02/10 03:02:15;;;;;;;;;;;;;;;-4.40;64.20;101799.97;5091916;28;19916;-36
2023/02/10 03:04:41;;;;;;;;;;;;;;;-4.21;66.29;101808.78;5091745;28;19977;-36
2023/02/10 03:07:06;;;;;;;;;;;;;;;-4.19;64.45;101795.72;5091797;28;20343;-35
2023/02/10 03:09:32;;;;;;;;;;;;;;;-4.14;64.74;101794.66;5091622;28;19912;-36
2023/02/10 03:11:58;;;;;;;;;;;;;;;-4.38;64.59;101798.16;5091475;28;19920;-36
2023/02/10 03:14:23;;;;;;;;;;;;;;;-4.45;65.64;101796.72;5091451;28;19912;-36
2023/02/10 03:16:49;;;;;;;;;;;;;;;-4.41;66.17;101795.72;5091556;28;20375;-36
2023/02/10 03:19:14;;;;;;;;;;;;;;;-4.41;66.16;101793.94;5091340;28;20356;-36
2023/02/10 03:21:39;;;;;;;;;;;;;;;-4.64;66.13;101794.78;5091482;28;19924;-36
2023/02/10 03:24:05;;;;;;;;;;;;;;;-4.93;67.39;101799.28;5091285;28;20265;-36
2023/02/10 03:26:30;;;;;;;;;;;;;;;-5.00;67.74;101790.00;5091535;28;20375;-37
2023/02/10 03:28:55;;;;;;;;;;;;;;;-4.99;66.50;101796.03;5091580;28;19912;-36
2023/02/10 03:31:21;;;;;;;;;;;;;;;-5.23;68.05;101795.97;5091153;28;19924;-35
2023/02/10 03:33:46;;;;;;;;;;;;;;;-5.34;67.71;101793.72;5091472;28;19992;-35
2023/02/10 03:36:11;;;;;;;;;;;;;;;-5.21;67.19;101799.38;5091252;28;20040;-35
2023/02/10 03:38:37;;;;;;;;;;;;;;;-5.29;66.77;101791.00;5091404;28;20422;-36
2023/02/10 03:41:02;;;;;;;;;;;;;;;-5.19;68.03;101799.31;5091415;28;19927;-36
2023/02/10 03:43:27;;;;;;;;;;;;;;;-5.00;67.12;101791.75;5091126;28;19916;-36
2023/02/10 03:45:53;;;;;;;;;;;;;;;-5.10;67.77;101788.63;5091125;28;19916;-35
2023/02/10 03:48:18;;;;;;;;;;;;;;;-4.96;66.72;101791.59;5091382;28;19912;-37
2023/02/10 03:50:44;;;;;;;;;;;;;;;-4.85;67.84;101791.22;5091300;28;19923;-35
2023/02/10 03:53:09;;;;;;;;;;;;;;;-4.59;64.96;101789.41;5091337;28;19912;-35
2023/02/10 03:55:34;;;;;;;;;;;;;;;-4.55;65.76;101788.41;5091036;28;19916;-35
2023/02/10 03:58:01;;;;;;;;;;;;;;;-4.88;65.56;101787.88;5091001;28;19919;-36
2023/02/10 04:00:26;;;;;;;;;;;;;;;-5.03;66.16;101784.91;5092660;28;19912;-36
2023/02/10 04:02:51;;;;;;;;;;;;;;;-4.96;66.49;101775.16;5095249;28;19969;-36
2023/02/10 04:05:17;;;;;;;;;;;;;;;-4.87;65.75;101779.16;5095208;28;19960;-35
2023/02/10 04:07:42;;;;;;;;;;;;;;;-4.70;65.64;101784.63;5094875;28;19931;-34
2023/02/10 04:10:07;;;;;;;;;;;;;;;-4.69;65.03;101780.28;5095092;28;20419;-35
2023/02/10 04:12:33;;;;;;;;;;;;;;;-4.83;66.34;101789.41;5094861;28;20335;-35
2023/02/10 04:14:58;;;;;;;;;;;;;;;-4.68;66.20;101781.94;5094855;28;19912;-35
2023/02/10 04:17:23;;;;;;;;;;;;;;;-4.34;63.75;101784.16;5095112;28;19964;-35
2023/02/10 04:19:48;;;;;;;;;;;;;;;-4.45;64.61;101784.56;5094779;28;20348;-35
2023/02/10 04:22:14;;;;;;;;;;;;;;;-4.70;65.49;101779.44;5094644;28;19963;-36
2023/02/10 04:24:39;;;;;;;;;;;;;;;-4.94;65.80;101781.16;5094653;28;19912;-36
2023/02/10 04:27:04;;;;;;;;;;;;;;;-4.72;65.44;101786.44;5094511;28;19912;-36
2023/02/10 04:29:30;;;;;;;;;;;;;;;-4.62;65.20;101781.75;5094692;28;20312;-34
2023/02/10 04:31:55;;;;;;;;;;;;;;;-4.97;65.67;101779.50;5094755;28;19923;-35
2023/02/10 04:34:20;;;;;;;;;;;;;;;-4.85;65.35;101786.00;5094438;28;19931;-36
2023/02/10 04:36:45;;;;;;;;;;;;;;;-5.04;65.24;101785.81;5094174;28;20359;-39
2023/02/10 04:39:11;;;;;;;;;;;;;;;-5.06;65.76;101779.81;5094572;28;19943;-34
2023/02/10 04:41:36;;;;;;;;;;;;;;;-5.06;65.81;101784.16;5094645;28;20317;-41
2023/02/10 04:44:01;;;;;;;;;;;;;;;-5.06;65.96;101786.75;5094136;28;19920;-40
2023/02/10 04:46:26;;;;;;;;;;;;;;;-5.17;66.79;101790.56;5094169;28;19922;-40
2023/02/10 04:48:52;;;;;;;;;;;;;;;-5.11;66.54;101787.75;5093896;28;20357;-39
2023/02/10 04:51:17;;;;;;;;;;;;;;;-5.00;66.01;101790.00;5094001;28;19994;-40
2023/02/10 04:53:43;;;;;;;;;;;;;;;-5.32;67.76;101791.94;5094012;28;19912;-40
2023/02/10 04:56:09;;;;;;;;;;;;;;;-5.07;67.24;101790.25;5094096;28;19912;-39
2023/02/10 04:58:34;;;;;;;;;;;;;;;-4.97;65.18;101795.09;5093952;28;20349;-40
2023/02/10 05:00:59;;;;;;;;;;;;;;;-5.24;65.40;101790.84;5093915;28;19920;-40
2023/02/10 05:03:25;;;;;;;;;;;;;;;-5.32;65.80;101785.91;5095740;28;19919;-40
2023/02/10 05:05:53;;;;;;;;;;;;;;;-5.23;65.98;101793.38;5109353;28;19936;-41
2023/02/10 05:08:23;;;;;;;;;;;;;;;-5.14;65.60;101795.66;5114453;28;19916;-40
2023/02/10 05:10:49;;;;;;;;;;;;;;;-5.11;63.07;101785.16;5093257;28;20577;-41
2023/02/10 05:13:14;;;;;;;;;;;;;;;-5.50;65.95;101787.38;5093309;28;20497;-40
2023/02/10 05:15:40;;;;;;;;;;;;;;;-5.48;64.79;101784.69;5094484;28;20040;-41
2023/02/10 05:18:05;;;;;;;;;;;;;;;-5.63;66.12;101791.25;5099110;28;19912;-47
2023/02/10 05:20:30;;;;;;;;;;;;;;;-5.69;68.19;101781.94;5093372;28;19959;-46
2023/02/10 05:22:56;;;;;;;;;;;;;;;-4.72;65.26;101784.69;5090314;28;19920;-47
2023/02/10 05:25:21;;;;;;;;;;;;;;;-4.65;64.00;101794.84;5093544;28;19916;-47
2023/02/10 05:27:46;;;;;;;;;;;;;;;-4.77;64.80;101794.38;5093604;28;20366;-46
2023/02/10 05:30:12;;;;;;;;;;;;;;;-4.98;63.83;101801.19;5093241;28;19915;-46
2023/02/10 05:32:38;;;;;;;;;;;;;;;-4.71;63.28;101798.50;5092973;28;19922;-46
2023/02/10 05:35:04;;;;;;;;;;;;;;;-4.39;67.21;101799.09;5092318;28;19916;-45
2023/02/10 05:37:29;;;;;;;;;;;;;;;-4.37;62.25;101802.47;5072808;28;19948;-46
2023/02/10 05:39:54;;;;;;;;;;;;;;;-4.23;61.92;101800.19;5072936;28;19987;-46
2023/02/10 05:42:19;;;;;;;;;;;;;;;-4.25;61.88;101803.78;5072430;28;19989;-46
2023/02/10 05:44:45;;;;;;;;;;;;;;;-4.11;61.34;101809.31;5072439;28;19931;-47
2023/02/10 05:47:10;;;;;;;;;;;;;;;-3.94;61.96;101798.25;5072023;28;20054;-47
2023/02/10 05:49:35;;;;;;;;;;;;;;;-4.16;61.17;101811.22;5071538;28;20346;-49
2023/02/10 05:52:01;;;;;;;;;;;;;;;-4.06;61.01;101814.31;5071326;28;19916;-46
2023/02/10 05:54:26;;;;;;;;;;;;;;;-3.74;59.56;101810.47;5069999;28;19912;-46
2023/02/10 05:56:51;;;;;;;;;;;;;;;-3.31;59.92;101811.34;5070537;28;19927;-47
2023/02/10 05:59:17;;;;;;;;;;;;;;;-3.70;60.16;101819.84;5070689;28;20442;-47
2023/02/10 06:01:42;;;;;;;;;;;;;;;-3.53;59.97;101814.81;5071201;28;19913;-47
2023/02/10 06:04:07;;;;;;;;;;;;;;;-3.24;59.51;101817.97;5070496;28;19912;-47
2023/02/10 06:06:33;;;;;;;;;;;;;;;-3.39;58.51;101819.47;5071046;28;20474;-46
2023/02/10 06:08:58;;;;;;;;;;;;;;;-3.03;57.67;101816.22;5072333;28;19999;-47
2023/02/10 06:11:23;;;;;;;;;;;;;;;-3.30;58.35;101826.03;5071832;28;19920;-46
2023/02/10 06:13:48;;;;;;;;;;;;;;;-2.92;58.18;101834.00;5072089;28;20007;-47
2023/02/10 06:16:14;;;;;;;;;;;;;;;-2.73;57.30;101828.84;5071441;28;20401;-46
2023/02/10 06:18:39;;;;;;;;;;;;;;;-2.50;56.15;101827.84;5071872;28;19917;-46
2023/02/10 06:21:05;;;;;;;;;;;;;;;-2.07;54.79;101828.53;5072294;28;19913;-47
2023/02/10 06:23:30;;;;;;;;;;;;;;;-2.19;55.82;101829.06;5086297;28;20359;-41
2023/02/10 06:25:57;;;;;;;;;;;;;;;-1.85;54.94;101825.75;5090360;28;19912;-41
2023/02/10 06:28:26;;;;;;;;;;;;;;;-1.30;53.10;101834.47;5087803;28;19921;-41
2023/02/10 06:30:51;;;;;;;;;;;;;;;-0.86;50.92;101839.22;5085111;28;19924;-41
2023/02/10 06:33:17;;;;;;;;;;;;;;;-1.04;50.72;101835.78;5092992;28;20300;-41
2023/02/10 06:35:42;;;;;;;;;;;;;;;-0.85;50.60;101843.53;5082919;28;20395;-42
2023/02/10 06:38:07;;;;;;;;;;;;;;;-0.77;50.31;101832.69;5083986;28;19989;-41
2023/02/10 06:40:33;;;;;;;;;;;;;;;-0.68;49.80;101838.28;5085128;28;19943;-42
2023/02/10 06:42:58;;;;;;;;;;;;;;;-0.79;50.16;101833.59;5086796;28;20368;-42
2023/02/10 06:45:24;;;;;;;;;;;;;;;-0.36;52.27;101842.75;5090825;28;19916;-42
2023/02/10 06:47:49;;;;;;;;;;;;;;;0.14;48.35;101837.38;5071117;28;19912;-41
2023/02/10 06:50:14;;;;;;;;;;;;;;;-0.07;48.42;101839.41;5071145;28;19918;-41
2023/02/10 06:52:40;;;;;;;;;;;;;;;0.08;47.30;101842.97;5070893;28;19923;-42
2023/02/10 06:55:06;;;;;;;;;;;;;;;-0.23;47.99;101841.16;5070918;28;19912;-42
2023/02/10 06:57:32;;;;;;;;;;;;;;;-0.05;48.19;101840.16;5070696;28;19946;-42
2023/02/10 06:59:58;;;;;;;;;;;;;;;0.20;47.78;101836.22;5069240;28;20037;-42
2023/02/10 07:02:24;;;;;;;;;;;;;;;0.64;45.75;101834.63;5070046;28;19913;-42
2023/02/10 07:04:49;;;;;;;;;;;;;;;0.47;46.25;101833.81;5069529;28;19919;-42
2023/02/10 07:07:14;;;;;;;;;;;;;;;0.64;45.94;101824.16;5069751;28;19912;-41
2023/02/10 07:09:40;;;;;;;;;;;;;;;1.41;44.54;101830.09;5069548;28;19954;-42
2023/02/10 07:12:05;;;;;;;;;;;;;;;1.42;43.17;101829.19;5070521;28;20404;-42
2023/02/10 07:14:30;;;;;;;;;;;;;;;1.31;43.83;101821.94;5070794;28;19913;-42
2023/02/10 07:16:56;;;;;;;;;;;;;;;1.14;44.03;101825.56;5070348;28;19916;-41
2023/02/10 07:19:21;;;;;;;;;;;;;;;1.25;44.29;101835.44;5070503;28;19947;-42
2023/02/10 07:21:46;;;;;;;;;;;;;;;1.65;43.31;101835.66;5070528;28;19920;-42
2023/02/10 07:24:11;;;;;;;;;;;;;;;2.06;42.02;101837.50;5071105;28;19916;-42
2023/02/10 07:26:37;;;;;;;;;;;;;;;2.29;41.83;101843.91;5070517;28;19913;-43
2023/02/10 07:29:02;;;;;;;;;;;;;;;2.51;41.65;101838.94;5070959;28;19926;-41
2023/02/10 07:31:27;;;;;;;;;;;;;;;2.25;41.84;101842.41;5070402;28;19920;-41
2023/02/10 07:33:53;;;;;;;;;;;;;;;2.19;41.17;101832.28;5070761;28;20380;-41
2023/02/10 07:36:18;;;;;;;;;;;;;;;2.48;40.84;101840.94;5086552;28;20461;-42
2023/02/10 07:38:43;;;;;;;;;;;;;;;2.47;40.86;101844.47;5097938;28;19912;-41
2023/02/10 07:41:09;;;;;;;;;;;;;;;2.68;40.79;101837.81;5097607;28;19916;-43
2023/02/10 07:43:34;;;;;;;;;;;;;;;2.81;39.74;101837.03;5097880;28;19916;-44
2023/02/10 07:45:59;;;;;;;;;;;;;;;3.20;39.48;101832.63;5097691;28;19912;-42
2023/02/10 07:48:25;;;;;;;;;;;;;;;3.37;38.97;101828.84;5097630;28;19947;-43
2023/02/10 07:50:53;;;;;;;;;;;;;;;3.32;39.25;101823.94;5097154;28;20090;-42
2023/02/10 07:53:19;;;;;;;;;;;;;;;3.75;37.99;101830.63;5097083;28;20315;-41
2023/02/10 07:55:44;;;;;;;;;;;;;;;3.59;37.60;101829.06;5097233;28;19934;-43
2023/02/10 07:58:10;;;;;;;;;;;;;;;3.52;38.49;101828.66;5097414;28;19919;-43
2023/02/10 08:00:35;;;;;;;;;;;;;;;3.48;38.05;101824.56;5097130;28;19912;-42
2023/02/10 08:03:00;;;;;;;;;;;;;;;3.57;37.44;101824.88;5097405;28;19999;-43
2023/02/10 08:05:28;;;;;;;;;;;;;;;4.26;36.62;101831.31;5097512;28;20049;-42
2023/02/10 08:07:53;;;;;;;;;;;;;;;4.35;36.19;101826.34;5097283;28;19916;-42
2023/02/10 08:10:18;;;;;;;;;;;;;;;4.27;37.14;101826.91;5097294;28;19965;-42
2023/02/10 08:12:46;;;;;;;;;;;;;;;4.28;36.73;101823.31;5097017;28;20337;-42
2023/02/10 08:15:11;;;;;;;;;;;;;;;4.22;36.37;101829.84;5096991;28;20399;-41
2023/02/10 08:17:38;;;;;;;;;;;;;;;4.41;36.24;101826.72;5097270;28;19969;-40
2023/02/10 08:20:03;;;;;;;;;;;;;;;4.68;35.63;101821.22;5097353;28;19995;-43
2023/02/10 08:22:29;;;;;;;;;;;;;;;4.53;36.10;101821.50;5097596;28;20006;-43
2023/02/10 08:24:54;;;;;;;;;;;;;;;4.59;35.80;101818.41;5097479;28;19942;-40
2023/02/10 08:27:19;;;;;;;;;;;;;;;4.68;35.67;101818.59;5097522;28;19919;-42
2023/02/10 08:29:45;;;;;;;;;;;;;;;4.70;35.70;101819.31;5097388;28;20340;-41
2023/02/10 08:32:12;;;;;;;;;;;;;;;4.40;36.48;101824.19;5097422;28;19916;-41
2023/02/10 08:34:38;;;;;;;;;;;;;;;4.59;36.31;101821.91;5097256;28;20058;-42
2023/02/10 08:37:03;;;;;;;;;;;;;;;5.09;35.25;101821.69;5096844;28;19980;-41
2023/02/10 08:39:29;;;;;;;;;;;;;;;4.32;36.79;101822.13;5096559;28;19916;-42
2023/02/10 08:41:54;;;;;;;;;;;;;;;4.75;36.15;101813.69;5097036;28;19916;-42
2023/02/10 08:44:19;;;;;;;;;;;;;;;4.90;35.92;101819.59;5096774;28;19966;-42
2023/02/10 08:46:45;;;;;;;;;;;;;;;5.06;35.49;101820.13;5094922;28;19937;-41
2023/02/10 08:49:10;;;;;;;;;;;;;;;5.13;35.30;101820.50;5093628;28;19918;-41
2023/02/10 08:51:38;;;;;;;;;;;;;;;5.62;34.53;101811.41;5093642;28;20065;-41
2023/02/10 08:54:04;;;;;;;;;;;;;;;4.96;35.46;101808.59;5093689;28;19916;-41
2023/02/10 08:56:29;;;;;;;;;;;;;;;4.97;35.05;101815.56;5093380;28;20268;-41
2023/02/10 08:58:54;;;;;;;;;;;;;;;5.09;35.54;101803.22;5093384;28;19959;-41
2023/02/10 09:01:21;;;;;;;;;;;;;;;5.38;35.00;101808.06;5093508;28;20248;-42
2023/02/10 09:03:47;;;;;;;;;;;;;;;5.59;35.40;101808.19;5093425;28;19912;-41
2023/02/10 09:06:14;;;;;;;;;;;;;;;5.34;34.85;101807.44;5093311;28;19924;-42
2023/02/10 09:08:41;;;;;;;;;;;;;;;4.97;35.96;101812.91;5093745;28;20319;-43
2023/02/10 09:11:07;;;;;;;;;;;;;;;5.08;35.42;101802.38;5093572;28;19916;-41
2023/02/10 09:13:32;;;;;;;;;;;;;;;5.04;35.32;101806.19;5093270;28;20393;-41
2023/02/10 09:15:58;;;;;;;;;;;;;;;4.53;35.88;101805.69;5092953;28;20280;-41
2023/02/10 09:18:23;;;;;;;;;;;;;;;4.47;35.89;101801.69;5092999;28;19912;-41
2023/02/10 09:20:48;;;;;;;;;;;;;;;5.06;35.30;101798.16;5093201;28;19947;-40
2023/02/10 09:23:13;;;;;;;;;;;;;;;4.98;34.79;101788.19;5092892;28;19912;-41
2023/02/10 09:25:39;;;;;;;;;;;;;;;5.16;34.72;101783.31;5092844;28;19915;-42
2023/02/10 09:28:04;;;;;;;;;;;;;;;5.22;34.64;101779.38;5092386;28;20042;-42
2023/02/10 09:30:29;;;;;;;;;;;;;;;5.21;34.58;101778.50;5092557;28;19912;-41
2023/02/10 09:32:55;;;;;;;;;;;;;;;5.47;34.45;101773.84;5092678;28;19919;-42
2023/02/10 09:35:20;;;;;;;;;;;;;;;5.25;34.35;101772.06;5092405;28;20006;-41
2023/02/10 09:37:46;;;;;;;;;;;;;;;5.17;34.90;101770.97;5091692;28;20007;-41
2023/02/10 09:40:15;;;;;;;;;;;;;;;5.20;34.74;101763.63;5092081;28;19953;-41
2023/02/10 09:42:56;;;;;;;;;;;;;;;5.21;34.70;101764.47;5092298;28;20425;-41
2023/02/10 09:45:26;;;;;;;;;;;;;;;5.59;34.31;101769.38;5086496;28;20014;-41
2023/02/10 09:47:57;;;;;;;;;;;;;;;5.45;34.07;101728.22;5081717;28;19961;-41
2023/02/10 09:50:28;;;;;;;;;;;;;;;5.80;34.18;101752.78;5082806;28;20355;-42
2023/02/10 09:53:13;;;;;;;;;;;;;;;5.46;34.82;101748.41;5082226;28;19920;-42
2023/02/10 09:55:41;;;;;;;;;;;;;;;6.04;33.35;101742.09;5082217;28;19913;-41
2023/02/10 09:58:30;;;;;;;;;;;;;;;5.71;33.95;101743.78;5081620;28;19919;-42
2023/02/10 10:00:58;;;;;;;;;;;;;;;5.71;33.41;101743.78;5082143;28;19920;-41
2023/02/10 10:03:42;;;;;;;;;;;;;;;5.79;33.78;101732.63;5081001;28;19916;-41
2023/02/10 10:06:13;;;;;;;;;;;;;;;5.77;33.36;101729.25;5081442;28;19912;-41
2023/02/10 10:08:39;;;;;;;;;;;;;;;5.47;33.87;101721.03;5080543;28;19912;-42
2023/02/10 10:11:09;;;;;;;;;;;;;;;5.62;33.16;101713.69;5081973;28;19923;-42
2023/02/10 10:13:34;;;;;;;;;;;;;;;5.30;33.32;101713.59;5082365;28;19912;-42
2023/02/10 10:16:00;;;;;;;;;;;;;;;5.24;33.30;101712.28;5079826;28;19934;-40
2023/02/10 10:18:25;;;;;;;;;;;;;;;5.32;33.82;101697.66;5088869;28;19912;-41
2023/02/10 10:20:53;;;;;;;;;;;;;;;5.53;33.68;101701.22;5082792;28;19996;-41
2023/02/10 10:23:18;;;;;;;;;;;;;;;6.03;32.32;101703.38;5080685;28;19920;-42
2023/02/10 10:25:46;;;;;;;;;;;;;;;5.87;32.37;101698.50;5081465;28;19916;-42
2023/02/10 10:28:31;;;;;;;;;;;;;;;6.32;31.72;101686.91;5087608;28;19924;-43
2023/02/10 10:30:56;;;;;;;;;;;;;;;6.43;31.02;101692.97;5091626;28;19916;-41
2023/02/10 10:33:35;;;;;;;;;;;;;;;5.90;32.01;101685.00;5091418;28;20307;-42
2023/02/10 10:36:01;;;;;;;;;;;;;;;5.41;32.32;101684.53;5088308;28;19912;-42
2023/02/10 10:38:30;;;;;;;;;;;;;;;5.60;32.14;101672.53;5070442;28;19920;-42
2023/02/10 10:40:59;;;;;;;;;;;;;;;5.68;32.56;101667.44;5070840;28;20388;-42
2023/02/10 10:43:29;;;;;;;;;;;;;;;5.38;32.95;101666.28;5070951;28;19935;-42
2023/02/10 10:46:01;;;;;;;;;;;;;;;5.38;32.04;101668.94;5071278;28;19920;-42
2023/02/10 10:48:30;;;;;;;;;;;;;;;5.83;31.73;101657.44;5069406;28;19912;-42
2023/02/10 10:50:58;;;;;;;;;;;;;;;6.41;30.57;101654.41;5069097;28;20308;-41
2023/02/10 10:53:30;;;;;;;;;;;;;;;6.18;31.42;101659.00;5068770;28;19919;-42
2023/02/10 10:55:55;;;;;;;;;;;;;;;5.83;31.51;101646.88;5068923;28;20357;-42
2023/02/10 10:58:24;;;;;;;;;;;;;;;5.45;32.54;101651.66;5068797;28;19912;-41
2023/02/10 11:00:53;;;;;;;;;;;;;;;5.25;32.75;101645.34;5068563;28;19923;-41
2023/02/10 11:03:19;;;;;;;;;;;;;;;5.24;32.74;101641.00;5069133;28;19913;-42
2023/02/10 11:05:55;;;;;;;;;;;;;;;5.60;32.74;101635.53;5069561;28;19919;-42
2023/02/10 11:08:31;;;;;;;;;;;;;;;5.72;31.93;101631.88;5070387;28;19912;-41
2023/02/10 11:10:59;;;;;;;;;;;;;;;5.48;32.22;101629.44;5070068;28;19916;-41
2023/02/10 11:13:29;;;;;;;;;;;;;;;5.74;31.53;101629.94;5070338;28;19978;-42
2023/02/10 11:16:15;;;;;;;;;;;;;;;6.28;31.18;101633.44;5070390;28;19919;-42
2023/02/10 11:18:50;;;;;;;;;;;;;;;5.85;31.30;101621.97;5070661;28;19940;-41
2023/02/10 11:21:15;;;;;;;;;;;;;;;5.25;32.42;101618.06;5069845;28;19990;-41
2023/02/10 11:23:50;;;;;;;;;;;;;;;5.72;31.55;101616.03;5070137;28;20411;-41
2023/02/10 11:26:21;;;;;;;;;;;;;;;5.85;31.10;101621.16;5070675;28;19935;-42
2023/02/10 11:28:46;;;;;;;;;;;;;;;6.25;30.18;101618.69;5070595;28;20327;-42
2023/02/10 11:31:20;;;;;;;;;;;;;;;6.18;30.53;101608.75;5070377;28;19916;-41
2023/02/10 11:33:53;;;;;;;;;;;;;;;6.04;30.66;101602.00;5070320;28;19955;-41
2023/02/10 11:36:28;;;;;;;;;;;;;;;5.34;31.17;101612.06;5070100;28;19913;-42
2023/02/10 11:38:59;;;;;;;;;;;;;;;5.25;31.93;101605.75;5070172;28;20011;-42
2023/02/10 11:41:28;;;;;;;;;;;;;;;6.02;31.83;101601.28;5070270;28;20058;-40
2023/02/10 11:43:54;;;;;;;;;;;;;;;6.45;30.43;101602.91;5070012;28;20018;-42
2023/02/10 11:46:21;;;;;;;;;;;;;;;6.79;30.45;101595.56;5070074;28;20438;-41
2023/02/10 11:48:56;;;;;;;;;;;;;;;5.97;30.95;101588.44;5070154;28;19939;-42
2023/02/10 11:51:22;;;;;;;;;;;;;;;5.93;31.55;101579.06;5070687;28;19963;-41
2023/02/10 11:53:48;;;;;;;;;;;;;;;5.84;31.24;101583.28;5070330;28;19974;-41
2023/02/10 11:56:19;;;;;;;;;;;;;;;6.17;31.49;101580.63;5069846;28;19917;-41
2023/02/10 11:58:59;;;;;;;;;;;;;;;6.04;31.38;101576.38;5069767;28;19935;-41
2023/02/10 12:01:39;;;;;;;;;;;;;;;6.40;30.84;101573.41;5070486;28;19920;-42
2023/02/10 12:04:14;;;;;;;;;;;;;;;6.51;29.85;101572.47;5070187;28;19935;-41
2023/02/10 12:06:44;;;;;;;;;;;;;;;6.78;29.27;101561.31;5070011;28;20319;-41
2023/02/10 12:09:19;;;;;;;;;;;;;;;6.28;30.52;101561.22;5069660;28;20040;-42
2023/02/10 12:11:53;;;;;;;;;;;;;;;6.12;30.05;101559.06;5069404;28;19923;-42
2023/02/10 12:14:43;;;;;;;;;;;;;;;5.22;30.89;101555.00;5069752;28;20376;-41
2023/02/10 12:17:22;;;;;;;;;;;;;;;5.56;30.95;101552.22;5069523;28;20003;-41
2023/02/10 12:19:48;;;;;;;;;;;;;;;5.91;30.61;101540.53;5069642;28;19912;-42
2023/02/10 12:22:16;;;;;;;;;;;;;;;6.16;31.17;101537.50;5070536;28;19940;-42
2023/02/10 12:24:41;;;;;;;;;;;;;;;6.48;30.37;101536.53;5073450;28;19917;-41
2023/02/10 12:27:33;;;;;;;;;;;;;;;6.27;29.86;101541.88;5073779;28;19913;-41
2023/02/10 12:29:58;;;;;;;;;;;;;;;5.80;30.72;101526.41;5073237;28;20454;-41
2023/02/10 12:32:48;;;;;;;;;;;;;;;5.56;31.17;101525.81;5073466;28;19923;-41
2023/02/10 12:35:17;;;;;;;;;;;;;;;5.99;30.44;101517.78;5073639;28;20134;-43
2023/02/10 12:37:45;;;;;;;;;;;;;;;5.53;30.31;101523.44;5073431;28;19913;-42
2023/02/10 12:40:10;;;;;;;;;;;;;;;4.89;31.45;101517.13;5073632;28;20364;-41